EDDL 200020Z AUTO VRB02KT CAVOK 15/13 Q1022 NOSIG EDDL 192350Z AUTO 33005KT 9999 FEW027 16/13 Q1022 EDDL 192320Z AUTO 30005KT 9999 BKN025 16/13 Q1022 NOSIG EDDL 192250Z AUTO VRB02KT 9999 BKN025 BKN031 17/14 Q1022 NOSIG EDDL 192220Z AUTO 32007KT 9999 FEW015 BKN029 BKN033 17/14 Q1022 NOSIG EDDL 192150Z AUTO 30005KT 9999 FEW016 BKN024 BKN033 18/15 Q1021 NOSIG EDDL 192120Z AUTO 29006KT 260V320 9999 FEW001 BKN024 BKN031 19/15 Q1021 BECMG 35005KT EDDL 192050Z AUTO 28006KT 9999 FEW001 BKN023 OVC031 19/16 Q1021 BECMG 34005KT EDDL 192020Z AUTO 19007KT 9999 SCT025 BKN033 19/16 Q1020 BECMG 33005KT EDDL 191950Z AUTO 20006KT 170V240 9999 OVC028 19/16 Q1020 BECMG 33005KT EDDL 191920Z AUTO 19005KT 9999 FEW028 18/16 Q1020 NOSIG EDDL 191850Z AUTO 18006KT CAVOK 19/16 Q1020 NOSIG EDDL 191820Z AUTO 22006KT CAVOK 20/16 Q1020 NOSIG EDDL 191750Z AUTO 22007KT 180V250 CAVOK 21/16 Q1020 NOSIG EDDL 191720Z AUTO 22005KT 180V260 CAVOK 21/16 Q1019 NOSIG EDDL 191650Z AUTO 24007KT 210V280 9999 FEW001 20/17 Q1019 NOSIG EDDL 191620Z AUTO 23008KT CAVOK 19/17 Q1019 NOSIG EDDL 191550Z AUTO 24006KT 9999 -RA NSC 18/17 Q1019 RESHRA NOSIG EDDL 191520Z AUTO 13004KT 9999 SHRA VCTS FEW///CB 18/16 Q1018 TEMPO 27015G35KT TSRA BKN030CB EDDL 191450Z AUTO VRB02KT 9999 -SHRA FEW001 FEW///TCU 18/16 Q1019 NOSIG EDDL 191420Z AUTO 12005KT 070V140 CAVOK 18/16 Q1018 RESHRA TEMPO SHRA BKN035CB EDDL 191350Z AUTO 35011KT 320V020 9999 SHRA VCTS FEW004 FEW///CB 17/16 Q1018 RETS TEMPO 28020G45KT TSRA EDDL 191320Z AUTO 30025G40KT 9999 +TSGRRA BKN049 BKN///CB 20/14 Q1018 TEMPO 26030G50KT 2000 +TSGRRA BKN025CB EDDL 191250Z AUTO 17014KT 140V200 CAVOK 27/14 Q1015 TEMPO 28025G45KT 2000 +TSGRRA BKN020CB EDDL 191220Z AUTO 17013KT 120V190 CAVOK 29/14 Q1015 TEMPO 26025G45KT 2000 +TSGRRA BKN025CB EDDL 191150Z AUTO 17014KT 140V210 CAVOK 29/15 Q1016 RESHRA TEMPO 28020G35KT 2000 +TSGRRA BKN030CB EDDL 191120Z AUTO 16012KT 9999 SHRA FEW///CB 28/14 Q1016 TEMPO NSW EDDL 191050Z AUTO 14013KT 9999 VCSH FEW///TCU 28/14 Q1016 TEMPO 21015G25KT TSRA SCT045CB EDDL 191020Z AUTO 15013KT 120V180 CAVOK 28/14 Q1016 BECMG 21010KT EDDL 190950Z AUTO 14013KT CAVOK 27/14 Q1017 NOSIG EDDL 190920Z AUTO 14012KT 110V180 CAVOK 26/14 Q1017 NOSIG EDDL 190850Z AUTO 15010KT 110V170 CAVOK 25/14 Q1017 NOSIG EDDL 190820Z AUTO 14008KT CAVOK 24/13 Q1018 NOSIG EDDL 190750Z AUTO 14006KT 100V190 9999 FEW001 24/14 Q1018 NOSIG EDDL 190720Z AUTO 14006KT 110V180 CAVOK 23/13 Q1018 NOSIG EDDL 190650Z AUTO VRB02KT CAVOK 22/14 Q1018 NOSIG EDDL 190620Z AUTO 19004KT 140V260 CAVOK 21/13 Q1019 NOSIG EDDL 190550Z AUTO 26009KT 220V290 CAVOK 21/13 Q1019 NOSIG EDDL 190520Z AUTO 18008KT 140V220 CAVOK 21/12 Q1018 NOSIG EDDL 190450Z AUTO 15009KT 120V180 CAVOK 21/12 Q1017 NOSIG EDDL 190420Z AUTO 15009KT CAVOK 21/12 Q1017 NOSIG EDDL 190350Z AUTO 16008KT CAVOK 20/12 Q1017 NOSIG EDDL 190320Z AUTO 15007KT CAVOK 20/12 Q1017 NOSIG EDDL 190250Z AUTO 16008KT CAVOK 20/12 Q1017 NOSIG EDDL 190220Z AUTO 15009KT CAVOK 22/12 Q1017 NOSIG EDDL 190150Z AUTO 14009KT CAVOK 22/12 Q1017 NOSIG EDDL 190120Z AUTO 15009KT CAVOK 22/12 Q1018 NOSIG EDDL 190050Z AUTO 14009KT CAVOK 21/12 Q1018 NOSIG EDDL 190020Z AUTO 15008KT CAVOK 21/13 Q1018 NOSIG EDDL 182350Z AUTO 14007KT CAVOK 21/13 Q1018 NOSIG EDDL 182320Z AUTO 11005KT CAVOK 19/15 Q1018 NOSIG EDDL 182250Z AUTO 10007KT CAVOK 17/15 Q1019 BECMG 16009KT EDDL 182220Z AUTO 10004KT CAVOK 18/16 Q1019 BECMG 16009KT EDDL 182150Z AUTO 06003KT CAVOK 19/16 Q1019 BECMG 14007KT EDDL 182120Z AUTO 03003KT CAVOK 20/16 Q1019 BECMG 14007KT EDDL 182050Z AUTO 06003KT 030V090 CAVOK 21/16 Q1019 BECMG 14007KT EDDL 182020Z AUTO 03006KT CAVOK 23/16 Q1019 BECMG 12007KT EDDL 181950Z AUTO 36005KT CAVOK 23/16 Q1019 BECMG 06005KT EDDL 181920Z AUTO 35008KT CAVOK 24/16 Q1019 BECMG 06005KT EDDL 181850Z AUTO 34007KT CAVOK 25/16 Q1019 NOSIG EDDL 181820Z AUTO 36008KT CAVOK 26/16 Q1019 NOSIG EDDL 181750Z AUTO 32009KT 260V350 CAVOK 26/15 Q1019 NOSIG EDDL 181720Z AUTO VRB02KT CAVOK 27/16 Q1019 NOSIG EDDL 181650Z AUTO 24003KT 180V330 CAVOK 29/15 Q1019 NOSIG EDDL 181620Z AUTO VRB04KT CAVOK 28/13 Q1019 NOSIG EDDL 181550Z AUTO 24004KT 190V280 CAVOK 29/12 Q1019 NOSIG EDDL 181520Z AUTO 19005KT 080V250 9999 FEW001 30/14 Q1019 NOSIG EDDL 181450Z AUTO 21004KT 140V300 9999 FEW001 30/12 Q1019 NOSIG EDDL 181420Z AUTO 22006KT 180V300 CAVOK 30/12 Q1019 NOSIG EDDL 181350Z AUTO VRB04KT CAVOK 30/11 Q1020 NOSIG EDDL 181320Z AUTO 19008KT 120V260 CAVOK 30/11 Q1020 NOSIG EDDL 181250Z AUTO 15005KT 110V250 CAVOK 29/12 Q1020 NOSIG

METAR Messwerte "DUESSELDORF" EDDL

Zurück zur Übersicht

Ortsname
Ländercode / m ü. NN
Zeit Temperatur Taupunkt Rel.
Luftfeuchte
Luftdruck:
Altimeter
NN
Station
Wind in Beaufort
(Knoten)
Sichtweite
(Meter)
Wolken
(Meter über Grund)
Wettererscheinung
DUESSELDORF
DE 37
Fr 20.05. 02:20151388 %1022
1022
1018
Uml 1 (2)>= 10000Nicht signifikant 
DUESSELDORF
DE 37
Fr 20.05. 01:50161382 %1022
1022
1018
NNW 2 (5)>= 10000Leicht bewölkt (820) 
DUESSELDORF
DE 37
Fr 20.05. 01:20161382 %1022
1022
1018
WNW 2 (5)>= 10000Stark bewölkt (760) 
DUESSELDORF
DE 37
Fr 20.05. 00:50171482 %1022
1022
1018
Uml 1 (2)>= 10000Stark bewölkt (940)
Stark bewölkt (760)
 
DUESSELDORF
DE 37
Fr 20.05. 00:20171482 %1022
1022
1018
NW 3 (7)>= 10000Stark bewölkt (1000)
Stark bewölkt (880)
Leicht bewölkt (460)
 
DUESSELDORF
DE 37
Do 19.05. 23:50181583 %1021
1021
1017
WNW 2 (5)>= 10000Stark bewölkt (1000)
Stark bewölkt (730)
Leicht bewölkt (490)
 
DUESSELDORF
DE 37
Do 19.05. 23:20191578 %1021
1021
1017
WNW 2 (6)
W - NW
Bald Übergang zu:
N 2 (5)
>= 10000Stark bewölkt (940)
Stark bewölkt (730)
Leicht bewölkt (30)
 
DUESSELDORF
DE 37
Do 19.05. 22:50191683 %1021
1021
1017
W 2 (6)
Bald Übergang zu:
NNW 2 (5)
>= 10000Bedeckt (940)
Stark bewölkt (700)
Leicht bewölkt (30)
 
DUESSELDORF
DE 37
Do 19.05. 22:20191683 %1020
1020
1016
S 3 (7)
Bald Übergang zu:
NNW 2 (5)
>= 10000Stark bewölkt (1000)
Wolkig (760)
 
DUESSELDORF
DE 37
Do 19.05. 21:50191683 %1020
1020
1016
SSW 2 (6)
S - WSW
Bald Übergang zu:
NNW 2 (5)
>= 10000Bedeckt (850) 
DUESSELDORF
DE 37
Do 19.05. 21:20181688 %1020
1020
1016
S 2 (5)>= 10000Leicht bewölkt (850) 
DUESSELDORF
DE 37
Do 19.05. 20:50191683 %1020
1020
1016
S 2 (6)>= 10000Nicht signifikant 
DUESSELDORF
DE 37
Do 19.05. 20:20201678 %1020
1020
1016
SW 2 (6)>= 10000Nicht signifikant 
DUESSELDORF
DE 37
Do 19.05. 19:50211673 %1020
1020
1016
SW 3 (7)
S - WSW
>= 10000Nicht signifikant 
DUESSELDORF
DE 37
Do 19.05. 19:20211673 %1019
1019
1015
SW 2 (5)
S - W
>= 10000Nicht signifikant 
DUESSELDORF
DE 37
Do 19.05. 18:50201783 %1019
1019
1015
WSW 3 (7)
SSW - W
>= 10000Leicht bewölkt (30) 
DUESSELDORF
DE 37
Do 19.05. 18:20191788 %1019
1019
1015
SW 3 (8)>= 10000Nicht signifikant 
DUESSELDORF
DE 37
Do 19.05. 17:50181794 %1019
1019
1015
WSW 2 (6)>= 10000Nicht signifikantRegen (schwach)
DUESSELDORF
DE 37
Do 19.05. 17:20181688 %1018
1018
1014
SO 2 (4)
Bald zeitweise:
W 4 (15) - 8 (35)
>= 10000 Regen-Schauer
Bald zeitweise: Gewitter mit Regen
DUESSELDORF
DE 37
Do 19.05. 16:50181688 %1019
1019
1015
Uml 1 (2)>= 10000Leicht bewölkt (30)Regen-Schauer (schwach)
DUESSELDORF
DE 37
Do 19.05. 16:20181688 %1018
1018
1014
OSO 2 (5)
ONO - SO
>= 10000Nicht signifikant Bald zeitweise: Regen-Schauer
DUESSELDORF
DE 37
Do 19.05. 15:50171694 %1018
1018
1014
N 4 (11)
NW - NNO
Bald zeitweise:
W 5 (20) - 9 (45)
>= 10000Leicht bewölkt (120)Regen-Schauer
Bald zeitweise: Gewitter mit Regen
DUESSELDORF
DE 37
Do 19.05. 15:20201468 %1018
1018
1014
WNW 6 (25) - 8 (40)
Bald zeitweise:
W 7 (30) - 10 (50)
>= 10000
Bald zeitweise: 2000
Stark bewölkt (1500)Gewitter mit Hagel/Regen (stark)
DUESSELDORF
DE 37
Do 19.05. 14:50271445 %1015
1015
1011
S 4 (14)
SO - SSW
Bald zeitweise:
W 6 (25) - 9 (45)
>= 10000
Bald zeitweise: 2000
Nicht signifikant Bald zeitweise: Gewitter mit Hagel/Regen (stark)
DUESSELDORF
DE 37
Do 19.05. 14:20291440 %1015
1015
1011
S 4 (13)
OSO - S
Bald zeitweise:
W 6 (25) - 9 (45)
>= 10000
Bald zeitweise: 2000
Nicht signifikant Bald zeitweise: Gewitter mit Hagel/Regen (stark)
DUESSELDORF
DE 37
Do 19.05. 13:50291543 %1016
1016
1012
S 4 (14)
SO - SSW
Bald zeitweise:
W 5 (20) - 8 (35)
>= 10000
Bald zeitweise: 2000
Nicht signifikant Bald zeitweise: Gewitter mit Hagel/Regen (stark)
DUESSELDORF
DE 37
Do 19.05. 13:20281442 %1016
1016
1012
SSO 4 (12)>= 10000 Regen-Schauer
DUESSELDORF
DE 37
Do 19.05. 12:50281442 %1016
1016
1012
SO 4 (13)
Bald zeitweise:
SSW 4 (15) - 6 (25)
>= 10000  Bald zeitweise: Gewitter mit Regen
DUESSELDORF
DE 37
Do 19.05. 12:20281442 %1016
1016
1012
SSO 4 (13)
OSO - S
Bald Übergang zu:
SSW 3 (10)
>= 10000Nicht signifikant 
DUESSELDORF
DE 37
Do 19.05. 11:50271445 %1017
1017
1013
SO 4 (13)>= 10000Nicht signifikant 
DUESSELDORF
DE 37
Do 19.05. 11:20261448 %1017
1017
1013
SO 4 (12)
OSO - S
>= 10000Nicht signifikant 
DUESSELDORF
DE 37
Do 19.05. 10:50251450 %1017
1017
1013
SSO 3 (10)
OSO - S
>= 10000Nicht signifikant 
DUESSELDORF
DE 37
Do 19.05. 10:20241350 %1018
1018
1014
SO 3 (8)>= 10000Nicht signifikant 
DUESSELDORF
DE 37
Do 19.05. 09:50241454 %1018
1018
1014
SO 2 (6)
O - S
>= 10000Leicht bewölkt (30) 
DUESSELDORF
DE 37
Do 19.05. 09:20231353 %1018
1018
1014
SO 2 (6)
OSO - S
>= 10000Nicht signifikant 
DUESSELDORF
DE 37
Do 19.05. 08:50221460 %1018
1018
1014
Uml 1 (2)>= 10000Nicht signifikant 
DUESSELDORF
DE 37
Do 19.05. 08:20211360 %1019
1019
1015
S 2 (4)
SO - W
>= 10000Nicht signifikant 
DUESSELDORF
DE 37
Do 19.05. 07:50211360 %1019
1019
1015
W 3 (9)
SW - WNW
>= 10000Nicht signifikant 
DUESSELDORF
DE 37
Do 19.05. 07:20211256 %1018
1018
1014
S 3 (8)
SO - SW
>= 10000Nicht signifikant 
DUESSELDORF
DE 37
Do 19.05. 06:50211256 %1017
1017
1013
SSO 3 (9)
OSO - S
>= 10000Nicht signifikant 
DUESSELDORF
DE 37
Do 19.05. 06:20211256 %1017
1017
1013
SSO 3 (9)>= 10000Nicht signifikant 
DUESSELDORF
DE 37
Do 19.05. 05:50201260 %1017
1017
1013
SSO 3 (8)>= 10000Nicht signifikant 
DUESSELDORF
DE 37
Do 19.05. 05:20201260 %1017
1017
1013
SSO 3 (7)>= 10000Nicht signifikant 
DUESSELDORF
DE 37
Do 19.05. 04:50201260 %1017
1017
1013
SSO 3 (8)>= 10000Nicht signifikant 
DUESSELDORF
DE 37
Do 19.05. 04:20221253 %1017
1017
1013
SSO 3 (9)>= 10000Nicht signifikant 
DUESSELDORF
DE 37
Do 19.05. 03:50221253 %1017
1017
1013
SO 3 (9)>= 10000Nicht signifikant 
DUESSELDORF
DE 37
Do 19.05. 03:20221253 %1018
1018
1014
SSO 3 (9)>= 10000Nicht signifikant 
DUESSELDORF
DE 37
Do 19.05. 02:50211256 %1018
1018
1014
SO 3 (9)>= 10000Nicht signifikant 
DUESSELDORF
DE 37
Do 19.05. 02:20211360 %1018
1018
1014
SSO 3 (8)>= 10000Nicht signifikant 
DUESSELDORF
DE 37
Do 19.05. 01:50211360 %1018
1018
1014
SO 3 (7)>= 10000Nicht signifikant 
DUESSELDORF
DE 37
Do 19.05. 01:20191578 %1018
1018
1014
OSO 2 (5)>= 10000Nicht signifikant 
DUESSELDORF
DE 37
Do 19.05. 00:50171588 %1019
1019
1015
O 3 (7)
Bald Übergang zu:
SSO 3 (9)
>= 10000Nicht signifikant 
DUESSELDORF
DE 37
Do 19.05. 00:20181688 %1019
1019
1015
O 2 (4)
Bald Übergang zu:
SSO 3 (9)
>= 10000Nicht signifikant 
DUESSELDORF
DE 37
Mi 18.05. 23:50191683 %1019
1019
1015
ONO 2 (3)
Bald Übergang zu:
SO 3 (7)
>= 10000Nicht signifikant 
DUESSELDORF
DE 37
Mi 18.05. 23:20201678 %1019
1019
1015
NNO 2 (3)
Bald Übergang zu:
SO 3 (7)
>= 10000Nicht signifikant 
DUESSELDORF
DE 37
Mi 18.05. 22:50211673 %1019
1019
1015
ONO 2 (3)
NNO - O
Bald Übergang zu:
SO 3 (7)
>= 10000Nicht signifikant 
DUESSELDORF
DE 37
Mi 18.05. 22:20231665 %1019
1019
1015
NNO 2 (6)
Bald Übergang zu:
OSO 3 (7)
>= 10000Nicht signifikant 
DUESSELDORF
DE 37
Mi 18.05. 21:50231665 %1019
1019
1015
N 2 (5)
Bald Übergang zu:
ONO 2 (5)
>= 10000Nicht signifikant 
DUESSELDORF
DE 37
Mi 18.05. 21:20241661 %1019
1019
1015
N 3 (8)
Bald Übergang zu:
ONO 2 (5)
>= 10000Nicht signifikant 
DUESSELDORF
DE 37
Mi 18.05. 20:50251657 %1019
1019
1015
NNW 3 (7)>= 10000Nicht signifikant 
DUESSELDORF
DE 37
Mi 18.05. 20:20261654 %1019
1019
1015
N 3 (8)>= 10000Nicht signifikant 
DUESSELDORF
DE 37
Mi 18.05. 19:50261551 %1019
1019
1015
NW 3 (9)
W - N
>= 10000Nicht signifikant 
DUESSELDORF
DE 37
Mi 18.05. 19:20271651 %1019
1019
1015
Uml 1 (2)>= 10000Nicht signifikant 
DUESSELDORF
DE 37
Mi 18.05. 18:50291543 %1019
1019
1015
WSW 2 (3)
S - NNW
>= 10000Nicht signifikant 
DUESSELDORF
DE 37
Mi 18.05. 18:20281340 %1019
1019
1015
Uml 2 (4)>= 10000Nicht signifikant 
DUESSELDORF
DE 37
Mi 18.05. 17:50291235 %1019
1019
1015
WSW 2 (4)
S - W
>= 10000Nicht signifikant 
DUESSELDORF
DE 37
Mi 18.05. 17:20301438 %1019
1019
1015
S 2 (5)
O - WSW
>= 10000Leicht bewölkt (30) 
DUESSELDORF
DE 37
Mi 18.05. 16:50301233 %1019
1019
1015
SSW 2 (4)
SO - WNW
>= 10000Leicht bewölkt (30) 
DUESSELDORF
DE 37
Mi 18.05. 16:20301233 %1019
1019
1015
SW 2 (6)
S - WNW
>= 10000Nicht signifikant 
DUESSELDORF
DE 37
Mi 18.05. 15:50301131 %1020
1020
1016
Uml 2 (4)>= 10000Nicht signifikant 
DUESSELDORF
DE 37
Mi 18.05. 15:20301131 %1020
1020
1016
S 3 (8)
OSO - W
>= 10000Nicht signifikant 
DUESSELDORF
DE 37
Mi 18.05. 14:50291235 %1020
1020
1016
SSO 2 (5)
OSO - WSW
>= 10000Nicht signifikant 

Altimeter: Einstellung am Altimeter (Höhenmesser), die Höhe 0 muss auf diesen Luftdruckwert zeigen, damit das Gerät die Stationshöhe richtig anzeigt.

NN: Luftdruck reduziert auf "Normal Null", auf Meereshöhe, dieser von der Temperatur abhängige Wert wird bisweilen unkorrekt einfach als "Luftdruck" bezeichnet. Eigentlich nur eine fiktive Größe, die es erlaubt, Stationen auf unterschiedlichen Höhen miteinander zu vergleichen.

Station: Realer Luftdruck an der Station.